createdAt,value
2019-06-20T00:00:16.409Z,7.50
2019-06-20T00:02:48.130Z,7.95
2019-06-20T00:05:19.912Z,11.97
2019-06-20T00:07:51.479Z,6.30
2019-06-20T00:10:23.257Z,8.33
2019-06-20T00:13:00.260Z,7.15
2019-06-20T00:15:27.494Z,6.85
2019-06-20T00:17:59.196Z,6.97
2019-06-20T00:20:30.831Z,6.28
2019-06-20T00:23:02.569Z,10.05
2019-06-20T00:25:34.123Z,8.10
2019-06-20T00:28:05.590Z,6.78
2019-06-20T00:30:37.266Z,10.08
2019-06-20T00:33:08.876Z,8.58
2019-06-20T00:35:40.511Z,8.15
2019-06-20T00:38:14.750Z,10.43
2019-06-20T00:40:46.314Z,7.83
2019-06-20T00:43:18.534Z,6.50
2019-06-20T00:45:50.377Z,8.33
2019-06-20T00:48:21.983Z,6.92
2019-06-20T00:50:53.526Z,9.93
2019-06-20T00:53:25.300Z,7.78
2019-06-20T00:55:56.874Z,7.28
2019-06-20T00:58:28.544Z,7.97
2019-06-20T01:01:00.231Z,9.10
2019-06-20T01:03:31.918Z,7.25
2019-06-20T01:06:03.265Z,9.05
2019-06-20T01:08:35.038Z,9.90
2019-06-20T01:11:06.714Z,7.45
2019-06-20T01:13:38.496Z,8.15
2019-06-20T01:16:10.164Z,7.80
2019-06-20T01:18:41.839Z,7.30
2019-06-20T01:21:13.521Z,10.13
2019-06-20T01:23:45.291Z,10.18
2019-06-20T01:26:16.931Z,10.63
2019-06-20T01:28:48.637Z,7.72
2019-06-20T01:31:20.315Z,8.60
2019-06-20T01:33:52.089Z,8.65
2019-06-20T01:36:23.762Z,9.05
2019-06-20T01:38:55.757Z,7.72
2019-06-20T01:41:27.414Z,9.20
2019-06-20T01:43:59.094Z,7.28
2019-06-20T01:46:30.971Z,7.50
2019-06-20T01:49:02.854Z,8.63
2019-06-20T01:51:34.635Z,12.95
2019-06-20T01:54:06.916Z,9.05
2019-06-20T01:56:38.656Z,7.40
2019-06-20T01:59:10.366Z,9.18
2019-06-20T02:01:42.208Z,9.63
2019-06-20T02:04:14.025Z,10.32
2019-06-20T02:06:45.902Z,7.78
2019-06-20T02:09:17.475Z,10.55
2019-06-20T02:11:49.151Z,8.00
2019-06-20T02:14:20.824Z,7.35
2019-06-20T02:16:53.007Z,8.20
2019-06-20T02:19:24.480Z,7.62
2019-06-20T02:21:56.185Z,7.70
2019-06-20T02:24:27.739Z,6.75
2019-06-20T02:26:59.200Z,5.55
2019-06-20T02:29:31.187Z,10.18
2019-06-20T02:32:02.954Z,8.38
2019-06-20T02:34:34.637Z,6.10
2019-06-20T02:37:06.611Z,9.03
2019-06-20T02:39:38.301Z,5.62
2019-06-20T02:42:10.062Z,5.35
2019-06-20T02:44:41.659Z,6.67
2019-06-20T02:47:13.410Z,7.47
2019-06-20T02:49:45.080Z,5.65
2019-06-20T02:52:16.758Z,5.67
2019-06-20T02:54:48.827Z,7.17
2019-06-20T02:57:20.825Z,8.88
2019-06-20T02:59:52.594Z,6.50
2019-06-20T03:02:24.269Z,9.33
2019-06-20T03:04:55.949Z,6.87
2019-06-20T03:07:27.517Z,6.78
2019-06-20T03:09:59.132Z,14.50
2019-06-20T03:12:30.868Z,7.42
2019-06-20T03:15:02.541Z,6.58
2019-06-20T03:17:34.320Z,10.85
2019-06-20T03:20:08.870Z,11.88
2019-06-20T03:22:40.311Z,6.08
2019-06-20T03:25:14.964Z,5.22
2019-06-20T03:27:46.131Z,7.30
2019-06-20T03:30:18.114Z,10.50
2019-06-20T03:32:49.583Z,5.78
2019-06-20T03:35:20.814Z,6.83
2019-06-20T03:37:52.383Z,7.05
2019-06-20T03:40:24.194Z,5.28
2019-06-20T03:42:55.459Z,8.70
2019-06-20T03:45:27.238Z,8.28
2019-06-20T03:47:58.909Z,7.47
2019-06-20T03:50:30.686Z,10.18
2019-06-20T03:53:02.363Z,8.58
2019-06-20T03:55:34.351Z,6.75
2019-06-20T03:58:05.899Z,7.40
2019-06-20T04:00:37.589Z,8.38
2019-06-20T04:03:09.124Z,7.37
2019-06-20T04:05:40.739Z,16.45
2019-06-20T04:08:12.411Z,8.48
2019-06-20T04:10:43.991Z,12.75
2019-06-20T04:13:15.655Z,10.13
2019-06-20T04:15:47.435Z,7.50
2019-06-20T04:18:19.011Z,16.25
2019-06-20T04:20:50.680Z,7.75
2019-06-20T04:23:22.352Z,12.25
2019-06-20T04:25:53.950Z,7.92
2019-06-20T04:28:25.596Z,11.05
2019-06-20T04:30:57.285Z,13.58
2019-06-20T04:33:28.947Z,9.45
2019-06-20T04:36:00.417Z,11.22
2019-06-20T04:38:32.060Z,5.72
2019-06-20T04:41:03.768Z,8.18
2019-06-20T04:43:35.440Z,15.72
2019-06-20T04:46:11.817Z,9.05
2019-06-20T04:48:43.497Z,9.35
2019-06-20T04:51:15.268Z,6.30
2019-06-20T04:53:46.812Z,11.50
2019-06-20T04:56:18.529Z,8.48
2019-06-20T04:58:50.189Z,7.30
2019-06-20T05:01:21.971Z,8.00
2019-06-20T05:03:53.659Z,9.10
2019-06-20T05:06:25.215Z,7.80
2019-06-20T05:08:56.886Z,6.60
2019-06-20T05:11:28.665Z,9.43
2019-06-20T05:14:00.950Z,11.10
2019-06-20T05:16:32.094Z,5.47
2019-06-20T05:19:03.657Z,11.05
2019-06-20T05:21:35.371Z,11.60
2019-06-20T05:24:06.999Z,8.13
2019-06-20T05:26:38.631Z,10.53
2019-06-20T05:29:10.437Z,10.60
2019-06-20T05:31:42.009Z,8.53
2019-06-20T05:34:13.536Z,8.48
2019-06-20T05:36:45.207Z,9.78
2019-06-20T05:39:16.884Z,11.12
2019-06-20T05:41:48.449Z,9.35
2019-06-20T05:44:19.995Z,12.13
2019-06-20T05:46:51.700Z,23.80
2019-06-20T05:49:23.241Z,9.95
2019-06-20T05:51:54.841Z,8.70
2019-06-20T05:54:26.515Z,9.60
2019-06-20T05:56:58.088Z,6.35
2019-06-20T05:59:29.862Z,8.80
2019-06-20T06:02:01.641Z,9.38
2019-06-20T06:04:33.315Z,7.78
2019-06-20T06:07:05.208Z,7.05
2019-06-20T06:09:36.754Z,7.37
2019-06-20T06:12:08.547Z,9.05
2019-06-20T06:14:40.127Z,11.57
2019-06-20T06:17:11.696Z,4.90
2019-06-20T06:19:42.832Z,6.30
2019-06-20T06:22:14.836Z,8.35
2019-06-20T06:24:46.476Z,9.58
2019-06-20T06:27:18.058Z,10.90
2019-06-20T06:29:49.652Z,7.40
2019-06-20T06:32:21.118Z,6.75
2019-06-20T06:34:52.805Z,9.40
2019-06-20T06:37:24.575Z,8.15
2019-06-20T06:39:56.145Z,11.50
2019-06-20T06:42:27.703Z,7.42
2019-06-20T06:44:59.390Z,9.53
2019-06-20T06:47:31.166Z,11.25
2019-06-20T06:50:02.991Z,7.62
2019-06-20T06:52:34.717Z,5.03
2019-06-20T06:55:07.212Z,9.00
2019-06-20T06:57:38.405Z,4.25
2019-06-20T07:00:11.584Z,3.98
2019-06-20T07:02:42.799Z,4.80
2019-06-20T07:05:15.346Z,4.17
2019-06-20T07:07:46.555Z,6.22
2019-06-20T07:10:18.440Z,7.03
2019-06-20T07:12:49.649Z,6.80
2019-06-20T07:15:21.626Z,3.98
2019-06-20T07:17:52.896Z,6.00
2019-06-20T07:20:24.636Z,4.45
2019-06-20T07:22:56.345Z,6.10
2019-06-20T07:25:27.919Z,3.00
2019-06-20T07:27:59.716Z,5.17
2019-06-20T07:30:31.266Z,5.17
2019-06-20T07:33:02.838Z,3.80
2019-06-20T07:35:34.516Z,6.60
2019-06-20T07:38:06.156Z,14.75
2019-06-20T07:40:37.762Z,4.35
2019-06-20T07:43:09.438Z,5.72
2019-06-20T07:45:40.891Z,6.12
2019-06-20T07:48:12.689Z,5.53
2019-06-20T07:50:44.152Z,4.47
2019-06-20T07:53:15.928Z,4.30
2019-06-20T07:55:47.330Z,4.30
2019-06-20T07:58:18.878Z,4.12
2019-06-20T08:00:50.643Z,4.17
2019-06-20T08:03:22.221Z,5.75
2019-06-20T08:05:53.792Z,6.17
2019-06-20T08:08:25.374Z,3.08
2019-06-20T08:10:56.943Z,3.33
2019-06-20T08:13:28.711Z,5.00
2019-06-20T08:16:03.522Z,4.47
2019-06-20T08:18:33.487Z,5.28
2019-06-20T08:21:05.173Z,2.58
2019-06-20T08:23:36.834Z,3.72
2019-06-20T08:26:08.474Z,4.53
2019-06-20T08:28:40.189Z,2.90
2019-06-20T08:31:11.659Z,5.78
2019-06-20T08:33:43.345Z,4.95
2019-06-20T08:36:14.967Z,3.15
2019-06-20T08:38:46.783Z,3.92
2019-06-20T08:41:18.355Z,4.85
2019-06-20T08:43:50.042Z,2.85
2019-06-20T08:46:21.703Z,3.17
2019-06-20T08:48:53.279Z,3.60
2019-06-20T08:51:24.845Z,3.72
2019-06-20T08:53:57.435Z,3.22
2019-06-20T08:56:29.224Z,2.67
2019-06-20T08:59:01.006Z,2.85
2019-06-20T09:01:32.420Z,5.10
2019-06-20T09:04:04.447Z,3.58
2019-06-20T09:06:36.094Z,4.28
2019-06-20T09:09:08.218Z,4.47
2019-06-20T09:11:39.778Z,5.35
2019-06-20T09:14:11.458Z,3.98
2019-06-20T09:16:43.131Z,6.35
2019-06-20T09:19:14.802Z,3.40
2019-06-20T09:21:46.442Z,5.87
2019-06-20T09:24:18.170Z,6.80
2019-06-20T09:26:51.352Z,2.77
2019-06-20T09:29:22.734Z,3.40
2019-06-20T09:31:55.441Z,3.33
2019-06-20T09:34:26.835Z,3.58
2019-06-20T09:36:59.419Z,3.92
2019-06-20T09:39:30.959Z,3.65
2019-06-20T09:42:03.441Z,4.92
2019-06-20T09:44:35.020Z,5.50
2019-06-20T09:47:06.699Z,3.75
2019-06-20T09:49:38.092Z,3.45
2019-06-20T09:52:09.636Z,5.45
2019-06-20T09:54:41.309Z,4.87
2019-06-20T09:57:12.780Z,3.98
2019-06-20T09:59:56.133Z,3.77
2019-06-20T10:02:17.762Z,5.22
2019-06-20T10:04:50.681Z,5.15
2019-06-20T10:07:22.339Z,7.00
2019-06-20T10:09:54.160Z,3.47
2019-06-20T10:12:25.857Z,6.20
2019-06-20T10:14:57.469Z,3.70
2019-06-20T10:17:29.108Z,4.17
2019-06-20T10:20:00.854Z,6.12
2019-06-20T10:22:32.285Z,3.65
2019-06-20T10:25:04.862Z,4.85
2019-06-20T10:27:36.453Z,4.53
2019-06-20T10:30:14.216Z,5.35
2019-06-20T10:32:42.111Z,3.30
2019-06-20T10:35:14.130Z,9.48
2019-06-20T10:37:46.824Z,3.95
2019-06-20T10:40:19.608Z,7.60
2019-06-20T10:42:52.767Z,4.50
2019-06-20T10:45:26.149Z,4.78
2019-06-20T10:47:57.408Z,4.03
2019-06-20T10:50:29.311Z,4.47
2019-06-20T10:53:00.569Z,4.62
2019-06-20T10:55:32.336Z,4.35
2019-06-20T10:58:03.776Z,3.40
2019-06-20T11:00:35.469Z,5.42
2019-06-20T11:03:08.595Z,5.05
2019-06-20T11:05:40.874Z,5.62
2019-06-20T11:08:13.057Z,3.40
2019-06-20T11:10:45.097Z,3.52
2019-06-20T11:13:16.713Z,4.65
2019-06-20T11:15:48.380Z,3.50
2019-06-20T11:18:19.931Z,3.58
2019-06-20T11:20:51.431Z,4.00
2019-06-20T11:23:22.897Z,5.83
2019-06-20T11:25:54.677Z,4.58
2019-06-20T11:28:26.263Z,4.42
2019-06-20T11:31:00.591Z,7.25
2019-06-20T11:33:31.021Z,7.55
2019-06-20T11:36:02.703Z,3.45
2019-06-20T11:38:34.380Z,4.53
2019-06-20T11:41:05.963Z,3.40
2019-06-20T11:43:38.362Z,3.85
2019-06-20T11:46:10.126Z,5.12
2019-06-20T11:48:43.024Z,3.30
2019-06-20T11:51:14.795Z,4.45
2019-06-20T11:53:46.066Z,4.62
2019-06-20T11:56:17.736Z,6.30
2019-06-20T11:58:49.412Z,3.37
2019-06-20T12:01:32.243Z,10.82
2019-06-20T12:03:54.294Z,3.65
2019-06-20T12:06:26.169Z,3.72
2019-06-20T12:08:57.644Z,4.87
2019-06-20T12:11:29.315Z,3.37
2019-06-20T12:14:00.910Z,4.42
2019-06-20T12:16:32.705Z,3.05
2019-06-20T12:19:04.256Z,5.37
2019-06-20T12:21:36.019Z,4.90
2019-06-20T12:24:08.685Z,3.02
2019-06-20T12:26:40.766Z,6.90
2019-06-20T12:29:12.981Z,2.95
2019-06-20T12:31:45.807Z,7.53
2019-06-20T12:34:17.260Z,5.17
2019-06-20T12:36:48.836Z,3.37
2019-06-20T12:39:20.397Z,3.85
2019-06-20T12:41:52.001Z,4.60
2019-06-20T12:44:23.544Z,3.33
2019-06-20T12:46:55.314Z,3.92
2019-06-20T12:49:26.989Z,3.45
2019-06-20T12:51:58.661Z,3.27
2019-06-20T12:54:30.413Z,2.83
2019-06-20T12:57:02.011Z,6.20
2019-06-20T12:59:33.587Z,5.60
2019-06-20T13:02:05.292Z,3.85
2019-06-20T13:04:38.224Z,3.92
2019-06-20T13:07:10.142Z,2.25
2019-06-20T13:09:42.328Z,2.90
2019-06-20T13:12:13.802Z,3.50
2019-06-20T13:14:45.701Z,2.92
2019-06-20T13:17:17.391Z,3.90
2019-06-20T13:19:49.025Z,2.35
2019-06-20T13:22:20.706Z,3.42
2019-06-20T13:24:52.339Z,2.47
2019-06-20T13:27:23.947Z,3.67
2019-06-20T13:29:55.623Z,2.80
2019-06-20T13:32:27.264Z,4.08
2019-06-20T13:34:58.836Z,4.03
2019-06-20T13:37:30.548Z,3.10
2019-06-20T13:40:02.018Z,3.17
2019-06-20T13:42:33.686Z,6.17
2019-06-20T13:45:08.545Z,9.30
2019-06-20T13:47:41.412Z,5.85
2019-06-20T13:50:13.114Z,4.45
2019-06-20T13:52:46.703Z,3.55
2019-06-20T13:55:18.008Z,6.47
2019-06-20T13:57:49.724Z,6.70
2019-06-20T14:00:25.528Z,3.05
2019-06-20T14:02:56.797Z,4.90
2019-06-20T14:05:28.373Z,4.85
2019-06-20T14:08:00.063Z,3.85
2019-06-20T14:10:32.638Z,5.50
2019-06-20T14:13:18.277Z,2.58
2019-06-20T14:15:37.319Z,3.30
2019-06-20T14:18:08.886Z,3.37
2019-06-20T14:20:40.563Z,2.37
2019-06-20T14:23:12.235Z,4.12
2019-06-20T14:25:43.787Z,2.33
2019-06-20T14:28:15.350Z,4.25
2019-06-20T14:30:48.272Z,3.95
2019-06-20T14:33:20.060Z,2.27
2019-06-20T14:35:51.733Z,5.12
2019-06-20T14:38:23.410Z,5.47
2019-06-20T14:40:54.979Z,7.28
2019-06-20T14:43:26.527Z,5.10
2019-06-20T14:45:58.131Z,2.85
2019-06-20T14:48:29.998Z,2.85
2019-06-20T14:51:01.237Z,3.92
2019-06-20T14:53:32.840Z,2.47
2019-06-20T14:56:04.417Z,2.60
2019-06-20T14:58:36.091Z,4.22
2019-06-20T15:01:07.773Z,4.90
2019-06-20T15:03:39.411Z,4.65
2019-06-20T15:06:11.121Z,2.80
2019-06-20T15:08:43.968Z,3.83
2019-06-20T15:11:15.791Z,3.65
2019-06-20T15:13:47.678Z,5.75
2019-06-20T15:16:20.637Z,2.47
2019-06-20T15:18:54.068Z,2.72
2019-06-20T15:21:25.451Z,2.80
2019-06-20T15:23:57.099Z,3.75
2019-06-20T15:26:28.766Z,3.08
2019-06-20T15:29:00.274Z,2.77
2019-06-20T15:31:31.911Z,5.17
2019-06-20T15:34:03.517Z,2.47
2019-06-20T15:36:35.095Z,2.80
2019-06-20T15:39:08.488Z,3.80
2019-06-20T15:41:40.076Z,4.30
2019-06-20T15:44:11.643Z,3.20
2019-06-20T15:46:43.288Z,3.30
2019-06-20T15:49:16.313Z,2.08
2019-06-20T15:51:47.768Z,34.53
2019-06-20T15:54:19.471Z,33.67
2019-06-20T15:56:51.020Z,13.68
2019-06-20T15:59:22.614Z,17.80
2019-06-20T16:01:54.053Z,11.93
2019-06-20T16:04:25.656Z,9.15
2019-06-20T16:06:57.179Z,2.80
2019-06-20T16:09:28.801Z,3.22
2019-06-20T16:12:00.605Z,2.75
2019-06-20T16:14:32.026Z,2.55
2019-06-20T16:17:03.622Z,6.03
2019-06-20T16:19:35.293Z,7.17
2019-06-20T16:22:06.867Z,3.10
2019-06-20T16:24:38.045Z,2.95
2019-06-20T16:27:09.706Z,3.12
2019-06-20T16:29:41.274Z,2.50
2019-06-20T16:32:12.847Z,3.65
2019-06-20T16:34:44.492Z,5.05
2019-06-20T16:37:16.061Z,4.30
2019-06-20T16:39:47.581Z,3.72
2019-06-20T16:42:19.234Z,5.97
2019-06-20T16:44:50.631Z,2.70
2019-06-20T16:47:22.177Z,4.92
2019-06-20T16:49:53.571Z,5.40
2019-06-20T16:52:25.220Z,3.30
2019-06-20T16:54:56.903Z,7.78
2019-06-20T16:57:28.466Z,6.78
2019-06-20T17:00:00.140Z,6.97
2019-06-20T17:02:31.781Z,4.42
2019-06-20T17:05:03.797Z,9.50
2019-06-20T17:07:35.089Z,4.58
2019-06-20T17:10:10.250Z,5.75
2019-06-20T17:12:41.438Z,6.20
2019-06-20T17:15:14.366Z,5.65
2019-06-20T17:17:45.751Z,3.35
2019-06-20T17:20:17.444Z,7.08
2019-06-20T17:22:49.253Z,6.60
2019-06-20T17:25:20.373Z,13.50
2019-06-20T17:27:52.037Z,8.85
2019-06-20T17:30:24.036Z,7.03
2019-06-20T17:32:55.283Z,12.88
2019-06-20T17:35:26.959Z,10.15
2019-06-20T17:37:58.147Z,8.60
2019-06-20T17:40:30.174Z,8.03
2019-06-20T17:43:01.468Z,8.15
2019-06-20T17:45:33.144Z,17.62
2019-06-20T17:48:04.816Z,24.72
2019-06-20T17:50:36.794Z,19.55
2019-06-20T17:53:08.477Z,30.80
2019-06-20T17:55:40.861Z,23.12
2019-06-20T17:58:12.333Z,22.65
2019-06-20T18:00:43.980Z,22.75
2019-06-20T18:03:15.602Z,18.45
2019-06-20T18:05:47.138Z,26.60
2019-06-20T18:08:18.726Z,29.32
2019-06-20T18:10:50.608Z,18.55
2019-06-20T18:13:22.248Z,19.57
2019-06-20T18:15:53.833Z,15.40
2019-06-20T18:18:25.403Z,23.27
2019-06-20T18:20:56.996Z,30.88
2019-06-20T18:23:28.568Z,48.33
2019-06-20T18:26:00.349Z,66.42
2019-06-20T18:28:32.122Z,41.83
2019-06-20T18:31:03.695Z,38.25
2019-06-20T18:33:35.383Z,34.48
2019-06-20T18:36:06.944Z,28.42
2019-06-20T18:38:38.600Z,18.75
2019-06-20T18:41:10.160Z,18.75
2019-06-20T18:43:41.753Z,9.08
2019-06-20T18:46:13.389Z,18.77
2019-06-20T18:48:45.109Z,14.90
2019-06-20T18:51:16.576Z,26.15
2019-06-20T18:53:50.601Z,14.18
2019-06-20T18:56:21.161Z,18.80
2019-06-20T18:58:52.702Z,14.83
2019-06-20T19:01:24.260Z,16.82
2019-06-20T19:03:55.837Z,15.48
2019-06-20T19:06:35.983Z,14.45
2019-06-20T19:09:00.444Z,8.83
2019-06-20T19:11:32.078Z,6.40
2019-06-20T19:14:04.865Z,6.58
2019-06-20T19:16:36.283Z,5.08
2019-06-20T19:19:07.955Z,6.55
2019-06-20T19:21:39.644Z,4.90
2019-06-20T19:24:11.205Z,5.00
2019-06-20T19:26:42.982Z,9.90
2019-06-20T19:29:15.257Z,6.22
2019-06-20T19:31:47.060Z,9.58
2019-06-20T19:34:18.824Z,7.30
2019-06-20T19:36:50.271Z,3.85
2019-06-20T19:39:21.964Z,4.87
2019-06-20T19:41:53.748Z,10.23
2019-06-20T19:44:25.332Z,16.12
2019-06-20T19:46:57.191Z,7.55
2019-06-20T19:49:28.765Z,9.85
2019-06-20T19:52:00.540Z,7.35
2019-06-20T19:54:32.118Z,7.15
2019-06-20T19:57:04.000Z,10.35
2019-06-20T19:59:35.340Z,7.03
2019-06-20T20:02:07.084Z,12.85
2019-06-20T20:04:38.711Z,7.28
2019-06-20T20:07:10.032Z,7.10
2019-06-20T20:09:41.651Z,5.37
2019-06-20T20:12:13.428Z,6.15
2019-06-20T20:14:46.137Z,4.60
2019-06-20T20:17:17.490Z,6.10
2019-06-20T20:19:49.069Z,4.75
2019-06-20T20:22:20.479Z,5.10
2019-06-20T20:24:52.116Z,11.30
2019-06-20T20:27:23.781Z,10.03
2019-06-20T20:29:55.388Z,12.63
2019-06-20T20:32:27.321Z,8.05
2019-06-20T20:34:59.147Z,7.37
2019-06-20T20:37:30.680Z,7.95
2019-06-20T20:40:02.262Z,15.28
2019-06-20T20:42:33.931Z,60.10
2019-06-20T20:45:07.653Z,35.25
2019-06-20T20:47:39.224Z,26.95
2019-06-20T20:50:11.560Z,12.45
2019-06-20T20:52:42.879Z,18.25
2019-06-20T20:55:16.668Z,14.85
2019-06-20T20:57:47.862Z,9.53
2019-06-20T21:00:25.256Z,11.28
2019-06-20T21:02:57.040Z,9.43
2019-06-20T21:05:28.582Z,7.25
2019-06-20T21:08:00.286Z,9.90
2019-06-20T21:10:31.961Z,7.62
2019-06-20T21:13:03.640Z,10.32
2019-06-20T21:15:35.124Z,7.58
2019-06-20T21:18:06.771Z,5.85
2019-06-20T21:20:38.453Z,6.67
2019-06-20T21:23:09.924Z,7.78
2019-06-20T21:25:41.475Z,5.80
2019-06-20T21:28:13.170Z,7.28
2019-06-20T21:30:44.711Z,8.43
2019-06-20T21:33:16.322Z,9.83
2019-06-20T21:35:47.988Z,6.30
2019-06-20T21:38:19.691Z,6.78
2019-06-20T21:40:51.234Z,8.88
2019-06-20T21:43:23.009Z,6.95
2019-06-20T21:45:54.479Z,8.55
2019-06-20T21:48:26.077Z,5.47
2019-06-20T21:50:57.737Z,5.42
2019-06-20T21:53:29.315Z,4.90
2019-06-20T21:56:00.978Z,4.25
2019-06-20T21:58:32.547Z,5.97
2019-06-20T22:01:04.802Z,6.40
2019-06-20T22:03:36.816Z,8.10
2019-06-20T22:06:20.230Z,5.58
2019-06-20T22:08:41.187Z,9.53
2019-06-20T22:11:12.390Z,10.10
2019-06-20T22:13:45.721Z,6.83
2019-06-20T22:16:18.153Z,6.72
2019-06-20T22:18:49.934Z,6.65
2019-06-20T22:21:21.589Z,5.00
2019-06-20T22:23:53.277Z,6.92
2019-06-20T22:26:24.841Z,4.45
2019-06-20T22:28:56.539Z,5.20
2019-06-20T22:31:28.100Z,4.47
2019-06-20T22:33:59.717Z,6.95
2019-06-20T22:36:40.310Z,7.40
2019-06-20T22:39:06.703Z,4.72
2019-06-20T22:41:38.334Z,6.03
2019-06-20T22:44:09.958Z,6.37
2019-06-20T22:46:41.522Z,3.77
2019-06-20T22:49:13.203Z,6.15
2019-06-20T22:51:44.762Z,6.03
2019-06-20T22:54:16.440Z,3.50
2019-06-20T22:56:48.111Z,5.50
2019-06-20T22:59:19.583Z,4.47
2019-06-20T23:01:51.256Z,5.37
2019-06-20T23:04:23.035Z,3.95
2019-06-20T23:06:56.718Z,7.03
2019-06-20T23:09:27.651Z,5.72
2019-06-20T23:11:59.179Z,7.25
2019-06-20T23:14:30.861Z,6.03
2019-06-20T23:17:03.460Z,7.37
2019-06-20T23:19:35.329Z,5.40
2019-06-20T23:22:06.902Z,5.87
2019-06-20T23:24:38.578Z,7.50
2019-06-20T23:27:13.835Z,5.45
2019-06-20T23:29:43.469Z,4.83
2019-06-20T23:32:15.031Z,7.28
2019-06-20T23:34:46.813Z,4.08
2019-06-20T23:37:18.512Z,4.12
2019-06-20T23:39:50.055Z,5.40
2019-06-20T23:42:21.591Z,3.98
2019-06-20T23:44:53.200Z,4.78
2019-06-20T23:47:24.771Z,3.80
2019-06-20T23:49:56.291Z,6.12
2019-06-20T23:52:35.287Z,5.92
2019-06-20T23:55:07.880Z,6.10
2019-06-20T23:57:39.548Z,8.43
